sensor_id;sensor_type;location;lat;lon;timestamp;temperature;humidity
32201;DHT22;18701;45.588;5.288;2022-07-04T00:00:27;24.00;99.90
32201;DHT22;18701;45.588;5.288;2022-07-04T00:02:53;24.00;99.90
32201;DHT22;18701;45.588;5.288;2022-07-04T00:05:19;24.00;99.90
32201;DHT22;18701;45.588;5.288;2022-07-04T00:07:50;23.90;99.90
32201;DHT22;18701;45.588;5.288;2022-07-04T00:10:17;23.80;99.90
32201;DHT22;18701;45.588;5.288;2022-07-04T00:12:44;24.00;99.90
32201;DHT22;18701;45.588;5.288;2022-07-04T00:15:13;23.90;99.90
32201;DHT22;18701;45.588;5.288;2022-07-04T00:17:38;24.10;99.90
32201;DHT22;18701;45.588;5.288;2022-07-04T00:20:05;24.10;99.90
32201;DHT22;18701;45.588;5.288;2022-07-04T00:22:31;24.10;99.90
32201;DHT22;18701;45.588;5.288;2022-07-04T00:24:57;23.90;99.90
32201;DHT22;18701;45.588;5.288;2022-07-04T00:27:23;24.00;99.90
32201;DHT22;18701;45.588;5.288;2022-07-04T00:29:49;24.00;99.90
32201;DHT22;18701;45.588;5.288;2022-07-04T00:32:14;23.80;99.90
32201;DHT22;18701;45.588;5.288;2022-07-04T00:34:40;23.90;99.90
32201;DHT22;18701;45.588;5.288;2022-07-04T00:37:06;23.90;99.90
32201;DHT22;18701;45.588;5.288;2022-07-04T00:39:31;23.80;99.90
32201;DHT22;18701;45.588;5.288;2022-07-04T00:41:57;23.70;99.90
32201;DHT22;18701;45.588;5.288;2022-07-04T00:44:23;23.70;99.90
32201;DHT22;18701;45.588;5.288;2022-07-04T00:46:48;23.60;99.90
32201;DHT22;18701;45.588;5.288;2022-07-04T00:49:15;23.50;99.90
32201;DHT22;18701;45.588;5.288;2022-07-04T00:51:42;23.60;99.90
32201;DHT22;18701;45.588;5.288;2022-07-04T00:54:13;23.70;99.90
32201;DHT22;18701;45.588;5.288;2022-07-04T00:56:40;23.60;99.90
32201;DHT22;18701;45.588;5.288;2022-07-04T00:59:07;23.70;99.90
32201;DHT22;18701;45.588;5.288;2022-07-04T01:01:33;23.70;99.90
32201;DHT22;18701;45.588;5.288;2022-07-04T01:04:01;23.60;99.90
32201;DHT22;18701;45.588;5.288;2022-07-04T01:06:27;23.60;99.90
32201;DHT22;18701;45.588;5.288;2022-07-04T01:08:53;23.60;99.90
32201;DHT22;18701;45.588;5.288;2022-07-04T01:11:18;23.50;99.90
32201;DHT22;18701;45.588;5.288;2022-07-04T01:13:44;23.50;99.90
32201;DHT22;18701;45.588;5.288;2022-07-04T01:16:10;23.50;99.90
32201;DHT22;18701;45.588;5.288;2022-07-04T01:18:37;23.20;99.90
32201;DHT22;18701;45.588;5.288;2022-07-04T01:21:04;23.30;99.90
32201;DHT22;18701;45.588;5.288;2022-07-04T01:23:29;23.00;99.90
32201;DHT22;18701;45.588;5.288;2022-07-04T01:25:56;23.10;99.90
32201;DHT22;18701;45.588;5.288;2022-07-04T01:28:23;23.10;99.90
32201;DHT22;18701;45.588;5.288;2022-07-04T01:30:49;23.10;99.90
32201;DHT22;18701;45.588;5.288;2022-07-04T01:33:14;23.00;99.90
32201;DHT22;18701;45.588;5.288;2022-07-04T01:35:43;22.90;99.90
32201;DHT22;18701;45.588;5.288;2022-07-04T01:38:08;22.50;99.90
32201;DHT22;18701;45.588;5.288;2022-07-04T01:40:34;22.30;99.90
32201;DHT22;18701;45.588;5.288;2022-07-04T01:43:00;22.40;99.90
32201;DHT22;18701;45.588;5.288;2022-07-04T01:45:25;22.40;99.90
32201;DHT22;18701;45.588;5.288;2022-07-04T01:47:51;22.20;99.90
32201;DHT22;18701;45.588;5.288;2022-07-04T01:50:17;22.40;99.90
32201;DHT22;18701;45.588;5.288;2022-07-04T01:52:42;22.30;99.90
32201;DHT22;18701;45.588;5.288;2022-07-04T01:55:09;22.20;99.90
32201;DHT22;18701;45.588;5.288;2022-07-04T01:57:35;22.40;99.90
32201;DHT22;18701;45.588;5.288;2022-07-04T02:00:01;22.30;99.90
32201;DHT22;18701;45.588;5.288;2022-07-04T02:02:45;22.30;99.90
32201;DHT22;18701;45.588;5.288;2022-07-04T02:05:11;22.30;99.90
32201;DHT22;18701;45.588;5.288;2022-07-04T02:07:36;22.20;99.90
32201;DHT22;18701;45.588;5.288;2022-07-04T02:10:03;22.50;99.90
32201;DHT22;18701;45.588;5.288;2022-07-04T02:12:28;22.60;99.90
32201;DHT22;18701;45.588;5.288;2022-07-04T02:15:12;22.60;99.90
32201;DHT22;18701;45.588;5.288;2022-07-04T02:17:38;22.70;99.90
32201;DHT22;18701;45.588;5.288;2022-07-04T02:20:04;22.70;99.90
32201;DHT22;18701;45.588;5.288;2022-07-04T02:22:31;22.50;99.90
32201;DHT22;18701;45.588;5.288;2022-07-04T02:24:57;22.30;99.90
32201;DHT22;18701;45.588;5.288;2022-07-04T02:27:23;22.40;99.90
32201;DHT22;18701;45.588;5.288;2022-07-04T02:29:49;22.20;99.90
32201;DHT22;18701;45.588;5.288;2022-07-04T02:32:14;22.30;99.90
32201;DHT22;18701;45.588;5.288;2022-07-04T02:34:40;22.20;99.90
32201;DHT22;18701;45.588;5.288;2022-07-04T02:37:06;22.10;99.90
32201;DHT22;18701;45.588;5.288;2022-07-04T02:39:32;22.30;99.90
32201;DHT22;18701;45.588;5.288;2022-07-04T02:41:57;22.10;99.90
32201;DHT22;18701;45.588;5.288;2022-07-04T02:44:23;22.10;99.90
32201;DHT22;18701;45.588;5.288;2022-07-04T02:46:49;22.10;99.90
32201;DHT22;18701;45.588;5.288;2022-07-04T02:49:14;22.00;99.90
32201;DHT22;18701;45.588;5.288;2022-07-04T02:51:40;22.00;99.90
32201;DHT22;18701;45.588;5.288;2022-07-04T02:54:07;21.80;99.90
32201;DHT22;18701;45.588;5.288;2022-07-04T02:56:33;21.90;99.90
32201;DHT22;18701;45.588;5.288;2022-07-04T02:58:58;21.60;99.90
32201;DHT22;18701;45.588;5.288;2022-07-04T03:01:24;21.60;99.90
32201;DHT22;18701;45.588;5.288;2022-07-04T03:03:49;21.60;99.90
32201;DHT22;18701;45.588;5.288;2022-07-04T03:06:16;21.30;99.90
32201;DHT22;18701;45.588;5.288;2022-07-04T03:08:42;21.20;99.90
32201;DHT22;18701;45.588;5.288;2022-07-04T03:11:07;21.50;99.90
32201;DHT22;18701;45.588;5.288;2022-07-04T03:13:33;21.50;99.90
32201;DHT22;18701;45.588;5.288;2022-07-04T03:15:59;21.60;99.90
32201;DHT22;18701;45.588;5.288;2022-07-04T03:18:25;21.60;99.90
32201;DHT22;18701;45.588;5.288;2022-07-04T03:20:50;21.40;99.90
32201;DHT22;18701;45.588;5.288;2022-07-04T03:23:19;21.10;99.90
32201;DHT22;18701;45.588;5.288;2022-07-04T03:25:45;21.40;99.90
32201;DHT22;18701;45.588;5.288;2022-07-04T03:28:10;21.20;99.90
32201;DHT22;18701;45.588;5.288;2022-07-04T03:30:36;21.30;99.90
32201;DHT22;18701;45.588;5.288;2022-07-04T03:33:02;21.30;99.90
32201;DHT22;18701;45.588;5.288;2022-07-04T03:35:28;21.00;99.90
32201;DHT22;18701;45.588;5.288;2022-07-04T03:37:55;21.30;99.90
32201;DHT22;18701;45.588;5.288;2022-07-04T03:40:21;21.30;99.90
32201;DHT22;18701;45.588;5.288;2022-07-04T03:42:50;21.10;99.90
32201;DHT22;18701;45.588;5.288;2022-07-04T03:45:16;21.30;99.90
32201;DHT22;18701;45.588;5.288;2022-07-04T03:47:41;21.20;99.90
32201;DHT22;18701;45.588;5.288;2022-07-04T03:50:07;21.40;99.90
32201;DHT22;18701;45.588;5.288;2022-07-04T03:52:33;21.50;99.90
32201;DHT22;18701;45.588;5.288;2022-07-04T03:54:59;21.20;99.90
32201;DHT22;18701;45.588;5.288;2022-07-04T03:57:24;21.30;99.90
32201;DHT22;18701;45.588;5.288;2022-07-04T03:59:50;21.10;99.90
32201;DHT22;18701;45.588;5.288;2022-07-04T04:02:19;21.00;99.90
32201;DHT22;18701;45.588;5.288;2022-07-04T04:04:44;21.00;99.90
32201;DHT22;18701;45.588;5.288;2022-07-04T04:07:29;20.80;99.90
32201;DHT22;18701;45.588;5.288;2022-07-04T04:09:55;20.80;99.90
32201;DHT22;18701;45.588;5.288;2022-07-04T04:12:20;20.70;99.90
32201;DHT22;18701;45.588;5.288;2022-07-04T04:14:49;21.10;99.90
32201;DHT22;18701;45.588;5.288;2022-07-04T04:17:15;21.10;99.90
32201;DHT22;18701;45.588;5.288;2022-07-04T04:19:40;21.30;99.90
32201;DHT22;18701;45.588;5.288;2022-07-04T04:22:06;21.10;99.90
32201;DHT22;18701;45.588;5.288;2022-07-04T04:24:31;21.00;99.90
32201;DHT22;18701;45.588;5.288;2022-07-04T04:26:57;21.10;99.90
32201;DHT22;18701;45.588;5.288;2022-07-04T04:29:22;20.90;99.90
32201;DHT22;18701;45.588;5.288;2022-07-04T04:31:48;21.10;99.90
32201;DHT22;18701;45.588;5.288;2022-07-04T04:34:14;21.10;99.90
32201;DHT22;18701;45.588;5.288;2022-07-04T04:36:39;20.90;99.90
32201;DHT22;18701;45.588;5.288;2022-07-04T04:39:05;20.90;99.90
32201;DHT22;18701;45.588;5.288;2022-07-04T04:41:30;21.00;99.90
32201;DHT22;18701;45.588;5.288;2022-07-04T04:43:56;21.00;99.90
32201;DHT22;18701;45.588;5.288;2022-07-04T04:46:21;21.20;99.90
32201;DHT22;18701;45.588;5.288;2022-07-04T04:48:47;21.40;99.90
32201;DHT22;18701;45.588;5.288;2022-07-04T04:51:13;21.40;99.90
32201;DHT22;18701;45.588;5.288;2022-07-04T04:53:38;21.30;99.90
32201;DHT22;18701;45.588;5.288;2022-07-04T04:56:04;21.30;99.90
32201;DHT22;18701;45.588;5.288;2022-07-04T04:58:30;21.20;99.90
32201;DHT22;18701;45.588;5.288;2022-07-04T05:00:55;21.40;99.90
32201;DHT22;18701;45.588;5.288;2022-07-04T05:03:21;21.40;99.90
32201;DHT22;18701;45.588;5.288;2022-07-04T05:05:49;21.60;99.90
32201;DHT22;18701;45.588;5.288;2022-07-04T05:08:15;21.40;99.90
32201;DHT22;18701;45.588;5.288;2022-07-04T05:10:40;21.60;99.90
32201;DHT22;18701;45.588;5.288;2022-07-04T05:13:06;21.60;99.90
32201;DHT22;18701;45.588;5.288;2022-07-04T05:15:32;21.60;99.90
32201;DHT22;18701;45.588;5.288;2022-07-04T05:17:58;21.60;99.90
32201;DHT22;18701;45.588;5.288;2022-07-04T05:20:23;21.70;99.90
32201;DHT22;18701;45.588;5.288;2022-07-04T05:22:49;21.60;99.90
32201;DHT22;18701;45.588;5.288;2022-07-04T05:25:15;21.50;99.90
32201;DHT22;18701;45.588;5.288;2022-07-04T05:27:40;21.60;99.90
32201;DHT22;18701;45.588;5.288;2022-07-04T05:30:07;21.80;99.90
32201;DHT22;18701;45.588;5.288;2022-07-04T05:32:32;21.80;99.90
32201;DHT22;18701;45.588;5.288;2022-07-04T05:34:58;21.90;99.90
32201;DHT22;18701;45.588;5.288;2022-07-04T05:37:24;21.90;99.90
32201;DHT22;18701;45.588;5.288;2022-07-04T05:39:50;21.60;99.90
32201;DHT22;18701;45.588;5.288;2022-07-04T05:42:19;21.80;99.90
32201;DHT22;18701;45.588;5.288;2022-07-04T05:44:45;21.70;99.90
32201;DHT22;18701;45.588;5.288;2022-07-04T05:47:10;21.80;99.90
32201;DHT22;18701;45.588;5.288;2022-07-04T05:49:36;21.70;99.90
32201;DHT22;18701;45.588;5.288;2022-07-04T05:52:02;21.70;99.90
32201;DHT22;18701;45.588;5.288;2022-07-04T05:54:28;21.80;99.90
32201;DHT22;18701;45.588;5.288;2022-07-04T05:56:53;21.70;99.90
32201;DHT22;18701;45.588;5.288;2022-07-04T05:59:19;21.50;99.90
32201;DHT22;18701;45.588;5.288;2022-07-04T06:01:45;21.60;99.90
32201;DHT22;18701;45.588;5.288;2022-07-04T06:04:11;21.40;99.90
32201;DHT22;18701;45.588;5.288;2022-07-04T06:06:36;21.30;99.90
32201;DHT22;18701;45.588;5.288;2022-07-04T06:09:02;21.30;99.90
32201;DHT22;18701;45.588;5.288;2022-07-04T06:11:28;21.60;99.90
32201;DHT22;18701;45.588;5.288;2022-07-04T06:13:54;21.40;99.90
32201;DHT22;18701;45.588;5.288;2022-07-04T06:16:20;21.30;99.90
32201;DHT22;18701;45.588;5.288;2022-07-04T06:18:46;21.50;99.90
32201;DHT22;18701;45.588;5.288;2022-07-04T06:21:12;21.00;99.90
32201;DHT22;18701;45.588;5.288;2022-07-04T06:23:37;20.90;99.90
32201;DHT22;18701;45.588;5.288;2022-07-04T06:26:03;21.20;99.90
32201;DHT22;18701;45.588;5.288;2022-07-04T06:28:28;21.30;99.90
32201;DHT22;18701;45.588;5.288;2022-07-04T06:30:55;20.90;99.90
32201;DHT22;18701;45.588;5.288;2022-07-04T06:33:20;21.00;99.90
32201;DHT22;18701;45.588;5.288;2022-07-04T06:35:46;20.90;99.90
32201;DHT22;18701;45.588;5.288;2022-07-04T06:38:21;21.10;99.90
32201;DHT22;18701;45.588;5.288;2022-07-04T06:40:50;21.30;99.90
32201;DHT22;18701;45.588;5.288;2022-07-04T06:43:20;21.20;99.90
32201;DHT22;18701;45.588;5.288;2022-07-04T06:45:46;20.90;99.90
32201;DHT22;18701;45.588;5.288;2022-07-04T06:48:12;21.10;99.90
32201;DHT22;18701;45.588;5.288;2022-07-04T06:50:38;21.40;99.90
32201;DHT22;18701;45.588;5.288;2022-07-04T06:53:05;21.50;99.90
32201;DHT22;18701;45.588;5.288;2022-07-04T06:55:31;21.20;99.90
32201;DHT22;18701;45.588;5.288;2022-07-04T06:57:56;21.00;99.90
32201;DHT22;18701;45.588;5.288;2022-07-04T07:00:22;21.20;99.90
32201;DHT22;18701;45.588;5.288;2022-07-04T07:02:48;21.20;99.90
32201;DHT22;18701;45.588;5.288;2022-07-04T07:05:14;21.40;99.90
32201;DHT22;18701;45.588;5.288;2022-07-04T07:07:39;21.70;99.90
32201;DHT22;18701;45.588;5.288;2022-07-04T07:10:05;21.60;99.90
32201;DHT22;18701;45.588;5.288;2022-07-04T07:12:32;21.40;99.90
32201;DHT22;18701;45.588;5.288;2022-07-04T07:14:59;21.60;99.90
32201;DHT22;18701;45.588;5.288;2022-07-04T07:17:25;21.90;99.90
32201;DHT22;18701;45.588;5.288;2022-07-04T07:19:51;21.80;99.90
32201;DHT22;18701;45.588;5.288;2022-07-04T07:22:19;21.70;99.90
32201;DHT22;18701;45.588;5.288;2022-07-04T07:24:45;22.00;99.90
32201;DHT22;18701;45.588;5.288;2022-07-04T07:27:11;22.00;99.90
32201;DHT22;18701;45.588;5.288;2022-07-04T07:29:37;22.10;99.90
32201;DHT22;18701;45.588;5.288;2022-07-04T07:32:04;21.90;99.90
32201;DHT22;18701;45.588;5.288;2022-07-04T07:34:30;21.90;99.90
32201;DHT22;18701;45.588;5.288;2022-07-04T07:36:56;21.90;99.90
32201;DHT22;18701;45.588;5.288;2022-07-04T07:39:22;22.00;99.90
32201;DHT22;18701;45.588;5.288;2022-07-04T07:41:49;22.20;99.90
32201;DHT22;18701;45.588;5.288;2022-07-04T07:44:15;22.40;99.90
32201;DHT22;18701;45.588;5.288;2022-07-04T07:46:41;22.40;99.90
32201;DHT22;18701;45.588;5.288;2022-07-04T07:49:06;22.20;99.90
32201;DHT22;18701;45.588;5.288;2022-07-04T07:51:32;22.10;99.90
32201;DHT22;18701;45.588;5.288;2022-07-04T07:53:58;22.40;99.90
32201;DHT22;18701;45.588;5.288;2022-07-04T07:56:24;22.50;99.90
32201;DHT22;18701;45.588;5.288;2022-07-04T07:58:50;22.90;99.90
32201;DHT22;18701;45.588;5.288;2022-07-04T08:01:16;22.70;99.90
32201;DHT22;18701;45.588;5.288;2022-07-04T08:03:46;23.00;99.90
32201;DHT22;18701;45.588;5.288;2022-07-04T08:06:30;22.90;99.90
32201;DHT22;18701;45.588;5.288;2022-07-04T08:09:06;22.70;99.90
32201;DHT22;18701;45.588;5.288;2022-07-04T08:11:32;22.90;99.90
32201;DHT22;18701;45.588;5.288;2022-07-04T08:13:57;23.00;99.90
32201;DHT22;18701;45.588;5.288;2022-07-04T08:16:23;23.40;99.90
32201;DHT22;18701;45.588;5.288;2022-07-04T08:18:49;23.40;99.90
32201;DHT22;18701;45.588;5.288;2022-07-04T08:21:14;23.60;99.90
32201;DHT22;18701;45.588;5.288;2022-07-04T08:23:40;23.50;99.90
32201;DHT22;18701;45.588;5.288;2022-07-04T08:26:06;23.70;99.90
32201;DHT22;18701;45.588;5.288;2022-07-04T08:28:32;23.70;99.90
32201;DHT22;18701;45.588;5.288;2022-07-04T08:30:58;24.10;99.90
32201;DHT22;18701;45.588;5.288;2022-07-04T08:33:24;24.10;99.90
32201;DHT22;18701;45.588;5.288;2022-07-04T08:35:50;24.50;99.90
32201;DHT22;18701;45.588;5.288;2022-07-04T08:38:16;24.40;99.90
32201;DHT22;18701;45.588;5.288;2022-07-04T08:40:42;24.20;99.90
32201;DHT22;18701;45.588;5.288;2022-07-04T08:43:12;24.30;99.90
32201;DHT22;18701;45.588;5.288;2022-07-04T08:45:39;24.10;99.90
32201;DHT22;18701;45.588;5.288;2022-07-04T08:48:08;24.40;99.90
32201;DHT22;18701;45.588;5.288;2022-07-04T08:50:46;24.50;99.90
32201;DHT22;18701;45.588;5.288;2022-07-04T08:53:21;24.70;99.90
32201;DHT22;18701;45.588;5.288;2022-07-04T08:55:48;24.90;99.90
32201;DHT22;18701;45.588;5.288;2022-07-04T08:58:32;24.50;99.90
32201;DHT22;18701;45.588;5.288;2022-07-04T09:01:01;24.50;99.90
32201;DHT22;18701;45.588;5.288;2022-07-04T09:03:28;24.70;99.90
32201;DHT22;18701;45.588;5.288;2022-07-04T09:05:55;24.50;99.90
32201;DHT22;18701;45.588;5.288;2022-07-04T09:08:21;24.30;99.90
32201;DHT22;18701;45.588;5.288;2022-07-04T09:10:48;24.10;99.90
32201;DHT22;18701;45.588;5.288;2022-07-04T09:13:14;24.10;99.90
32201;DHT22;18701;45.588;5.288;2022-07-04T09:15:44;24.00;99.90
32201;DHT22;18701;45.588;5.288;2022-07-04T09:20:46;23.90;99.90
32201;DHT22;18701;45.588;5.288;2022-07-04T09:23:23;23.80;99.90
32201;DHT22;18701;45.588;5.288;2022-07-04T09:26:16;23.80;99.90
32201;DHT22;18701;45.588;5.288;2022-07-04T09:28:45;23.70;99.90
32201;DHT22;18701;45.588;5.288;2022-07-04T09:31:30;23.70;99.90
32201;DHT22;18701;45.588;5.288;2022-07-04T09:34:01;23.70;99.90
32201;DHT22;18701;45.588;5.288;2022-07-04T09:36:35;23.40;99.90
32201;DHT22;18701;45.588;5.288;2022-07-04T09:39:11;23.30;99.90
32201;DHT22;18701;45.588;5.288;2022-07-04T09:41:59;23.20;99.90
32201;DHT22;18701;45.588;5.288;2022-07-04T09:44:45;23.30;99.90
32201;DHT22;18701;45.588;5.288;2022-07-04T09:47:22;23.50;99.90
32201;DHT22;18701;45.588;5.288;2022-07-04T09:52:31;23.20;99.90
32201;DHT22;18701;45.588;5.288;2022-07-04T09:55:02;23.20;99.90
32201;DHT22;18701;45.588;5.288;2022-07-04T09:57:32;23.50;99.90
32201;DHT22;18701;45.588;5.288;2022-07-04T10:02:50;23.60;99.90
32201;DHT22;18701;45.588;5.288;2022-07-04T10:05:24;23.70;99.90
32201;DHT22;18701;45.588;5.288;2022-07-04T10:07:50;23.80;99.90
32201;DHT22;18701;45.588;5.288;2022-07-04T10:10:32;23.60;99.90
32201;DHT22;18701;45.588;5.288;2022-07-04T10:13:06;23.70;99.90
32201;DHT22;18701;45.588;5.288;2022-07-04T10:15:33;23.90;99.90
32201;DHT22;18701;45.588;5.288;2022-07-04T10:17:59;24.10;99.90
32201;DHT22;18701;45.588;5.288;2022-07-04T10:20:25;24.30;99.90
32201;DHT22;18701;45.588;5.288;2022-07-04T10:22:51;24.30;99.90
32201;DHT22;18701;45.588;5.288;2022-07-04T10:25:20;24.50;99.90
32201;DHT22;18701;45.588;5.288;2022-07-04T10:27:46;24.70;99.90
32201;DHT22;18701;45.588;5.288;2022-07-04T10:30:24;24.80;99.90
32201;DHT22;18701;45.588;5.288;2022-07-04T10:32:51;24.90;99.90
32201;DHT22;18701;45.588;5.288;2022-07-04T10:39:05;24.90;99.90
32201;DHT22;18701;45.588;5.288;2022-07-04T10:41:15;25.00;99.90
32201;DHT22;18701;45.588;5.288;2022-07-04T10:43:59;25.30;99.90
32201;DHT22;18701;45.588;5.288;2022-07-04T10:46:31;25.10;99.90
32201;DHT22;18701;45.588;5.288;2022-07-04T10:49:27;25.30;99.90
32201;DHT22;18701;45.588;5.288;2022-07-04T10:54:33;25.90;99.90
32201;DHT22;18701;45.588;5.288;2022-07-04T11:02:30;26.10;99.90
32201;DHT22;18701;45.588;5.288;2022-07-04T11:04:57;26.40;99.90
32201;DHT22;18701;45.588;5.288;2022-07-04T11:17:56;27.10;99.90
32201;DHT22;18701;45.588;5.288;2022-07-04T11:20:22;26.50;99.90
32201;DHT22;18701;45.588;5.288;2022-07-04T11:22:49;26.50;99.90
32201;DHT22;18701;45.588;5.288;2022-07-04T11:25:15;26.00;99.90
32201;DHT22;18701;45.588;5.288;2022-07-04T11:27:41;25.90;99.90
32201;DHT22;18701;45.588;5.288;2022-07-04T11:30:08;25.70;99.90
32201;DHT22;18701;45.588;5.288;2022-07-04T11:32:35;25.50;99.90
32201;DHT22;18701;45.588;5.288;2022-07-04T11:35:03;25.60;99.90
32201;DHT22;18701;45.588;5.288;2022-07-04T11:37:29;25.80;99.90
32201;DHT22;18701;45.588;5.288;2022-07-04T11:39:56;26.10;99.90
32201;DHT22;18701;45.588;5.288;2022-07-04T11:42:41;26.40;99.90
32201;DHT22;18701;45.588;5.288;2022-07-04T11:45:43;26.70;99.90
32201;DHT22;18701;45.588;5.288;2022-07-04T11:48:08;26.80;99.90
32201;DHT22;18701;45.588;5.288;2022-07-04T11:50:34;27.20;99.90
32201;DHT22;18701;45.588;5.288;2022-07-04T11:52:59;27.00;99.90
32201;DHT22;18701;45.588;5.288;2022-07-04T11:55:25;27.20;99.90
32201;DHT22;18701;45.588;5.288;2022-07-04T11:57:51;27.30;99.90
32201;DHT22;18701;45.588;5.288;2022-07-04T12:00:25;27.30;99.90
32201;DHT22;18701;45.588;5.288;2022-07-04T12:02:51;27.80;99.90
32201;DHT22;18701;45.588;5.288;2022-07-04T12:05:18;28.10;99.90
32201;DHT22;18701;45.588;5.288;2022-07-04T12:07:46;28.50;99.90
32201;DHT22;18701;45.588;5.288;2022-07-04T12:10:18;28.30;99.90
32201;DHT22;18701;45.588;5.288;2022-07-04T12:15:19;27.90;99.90
32201;DHT22;18701;45.588;5.288;2022-07-04T12:17:52;27.40;99.90
32201;DHT22;18701;45.588;5.288;2022-07-04T12:20:23;27.50;99.90
32201;DHT22;18701;45.588;5.288;2022-07-04T12:22:51;28.00;99.90
32201;DHT22;18701;45.588;5.288;2022-07-04T12:27:59;28.40;99.90
32201;DHT22;18701;45.588;5.288;2022-07-04T12:30:27;28.50;99.90
32201;DHT22;18701;45.588;5.288;2022-07-04T12:32:57;28.40;99.90
32201;DHT22;18701;45.588;5.288;2022-07-04T12:38:49;27.90;99.90
32201;DHT22;18701;45.588;5.288;2022-07-04T12:41:11;28.20;99.90
32201;DHT22;18701;45.588;5.288;2022-07-04T12:48:54;27.50;99.90
32201;DHT22;18701;45.588;5.288;2022-07-04T12:51:25;27.70;99.90
32201;DHT22;18701;45.588;5.288;2022-07-04T12:53:53;28.20;99.90
32201;DHT22;18701;45.588;5.288;2022-07-04T12:56:37;27.90;99.90
32201;DHT22;18701;45.588;5.288;2022-07-04T12:59:05;27.70;99.90
32201;DHT22;18701;45.588;5.288;2022-07-04T13:01:31;28.00;99.90
32201;DHT22;18701;45.588;5.288;2022-07-04T13:03:58;28.40;99.90
32201;DHT22;18701;45.588;5.288;2022-07-04T13:06:24;28.40;99.70
32201;DHT22;18701;45.588;5.288;2022-07-04T13:08:50;28.10;99.30
32201;DHT22;18701;45.588;5.288;2022-07-04T13:11:16;28.30;99.70
32201;DHT22;18701;45.588;5.288;2022-07-04T13:14:00;28.50;99.10
32201;DHT22;18701;45.588;5.288;2022-07-04T13:16:25;28.70;99.50
32201;DHT22;18701;45.588;5.288;2022-07-04T13:18:51;28.90;99.70
32201;DHT22;18701;45.588;5.288;2022-07-04T13:21:20;28.50;99.60
32201;DHT22;18701;45.588;5.288;2022-07-04T13:23:45;28.60;99.80
32201;DHT22;18701;45.588;5.288;2022-07-04T13:26:11;28.00;99.60
32201;DHT22;18701;45.588;5.288;2022-07-04T13:28:37;28.00;99.90
32201;DHT22;18701;45.588;5.288;2022-07-04T13:31:04;28.40;99.90
32201;DHT22;18701;45.588;5.288;2022-07-04T13:33:29;28.90;99.90
32201;DHT22;18701;45.588;5.288;2022-07-04T13:35:55;29.10;99.90
32201;DHT22;18701;45.588;5.288;2022-07-04T13:38:22;29.10;99.10
32201;DHT22;18701;45.588;5.288;2022-07-04T13:40:48;28.80;98.70
32201;DHT22;18701;45.588;5.288;2022-07-04T13:43:13;29.00;99.50
32201;DHT22;18701;45.588;5.288;2022-07-04T13:45:39;29.20;99.70
32201;DHT22;18701;45.588;5.288;2022-07-04T13:48:06;29.60;99.30
32201;DHT22;18701;45.588;5.288;2022-07-04T13:50:32;29.70;98.90
32201;DHT22;18701;45.588;5.288;2022-07-04T13:53:01;29.70;98.60
32201;DHT22;18701;45.588;5.288;2022-07-04T13:55:26;29.40;99.00
32201;DHT22;18701;45.588;5.288;2022-07-04T13:57:52;29.70;98.90
32201;DHT22;18701;45.588;5.288;2022-07-04T14:00:18;29.40;99.90
32201;DHT22;18701;45.588;5.288;2022-07-04T14:02:43;29.00;99.20
32201;DHT22;18701;45.588;5.288;2022-07-04T14:05:09;28.90;99.10
32201;DHT22;18701;45.588;5.288;2022-07-04T14:07:35;28.70;99.50
32201;DHT22;18701;45.588;5.288;2022-07-04T14:10:01;28.80;99.00
32201;DHT22;18701;45.588;5.288;2022-07-04T14:12:26;29.10;99.00
32201;DHT22;18701;45.588;5.288;2022-07-04T14:14:52;29.00;99.10
32201;DHT22;18701;45.588;5.288;2022-07-04T14:17:18;28.80;98.90
32201;DHT22;18701;45.588;5.288;2022-07-04T14:19:43;29.00;99.60
32201;DHT22;18701;45.588;5.288;2022-07-04T14:22:09;29.10;99.10
32201;DHT22;18701;45.588;5.288;2022-07-04T14:24:35;29.50;98.80
32201;DHT22;18701;45.588;5.288;2022-07-04T14:27:00;29.30;98.50
32201;DHT22;18701;45.588;5.288;2022-07-04T14:29:26;28.90;98.20
32201;DHT22;18701;45.588;5.288;2022-07-04T14:31:52;29.30;98.90
32201;DHT22;18701;45.588;5.288;2022-07-04T14:34:18;29.70;97.90
32201;DHT22;18701;45.588;5.288;2022-07-04T14:36:44;29.20;98.70
32201;DHT22;18701;45.588;5.288;2022-07-04T14:39:09;29.20;97.80
32201;DHT22;18701;45.588;5.288;2022-07-04T14:41:35;29.70;97.60
32201;DHT22;18701;45.588;5.288;2022-07-04T14:44:01;29.60;96.90
32201;DHT22;18701;45.588;5.288;2022-07-04T14:46:27;29.30;97.40
32201;DHT22;18701;45.588;5.288;2022-07-04T14:48:52;29.80;97.70
32201;DHT22;18701;45.588;5.288;2022-07-04T14:51:18;29.70;98.10
32201;DHT22;18701;45.588;5.288;2022-07-04T14:53:44;29.90;98.00
32201;DHT22;18701;45.588;5.288;2022-07-04T14:56:09;29.60;96.70
32201;DHT22;18701;45.588;5.288;2022-07-04T14:58:35;29.70;96.40
32201;DHT22;18701;45.588;5.288;2022-07-04T15:01:01;29.80;95.60
32201;DHT22;18701;45.588;5.288;2022-07-04T15:03:26;29.80;96.10
32201;DHT22;18701;45.588;5.288;2022-07-04T15:05:53;30.10;95.60
32201;DHT22;18701;45.588;5.288;2022-07-04T15:08:18;29.60;96.00
32201;DHT22;18701;45.588;5.288;2022-07-04T15:10:44;29.70;95.50
32201;DHT22;18701;45.588;5.288;2022-07-04T15:13:10;29.60;95.70
32201;DHT22;18701;45.588;5.288;2022-07-04T15:15:35;30.00;95.70
32201;DHT22;18701;45.588;5.288;2022-07-04T15:18:02;29.70;95.80
32201;DHT22;18701;45.588;5.288;2022-07-04T15:20:28;29.60;96.00
32201;DHT22;18701;45.588;5.288;2022-07-04T15:23:12;29.50;95.70
32201;DHT22;18701;45.588;5.288;2022-07-04T15:25:56;29.00;96.00
32201;DHT22;18701;45.588;5.288;2022-07-04T15:28:22;29.10;96.20
32201;DHT22;18701;45.588;5.288;2022-07-04T15:30:47;29.20;95.80
32201;DHT22;18701;45.588;5.288;2022-07-04T15:33:13;29.20;96.60
32201;DHT22;18701;45.588;5.288;2022-07-04T15:35:42;28.90;96.60
32201;DHT22;18701;45.588;5.288;2022-07-04T15:38:09;29.10;97.00
32201;DHT22;18701;45.588;5.288;2022-07-04T15:40:35;29.40;96.90
32201;DHT22;18701;45.588;5.288;2022-07-04T15:43:01;29.20;97.00
32201;DHT22;18701;45.588;5.288;2022-07-04T15:45:27;28.40;96.90
32201;DHT22;18701;45.588;5.288;2022-07-04T15:47:53;28.30;97.10
32201;DHT22;18701;45.588;5.288;2022-07-04T15:50:19;28.10;97.30
32201;DHT22;18701;45.588;5.288;2022-07-04T15:52:44;27.60;97.70
32201;DHT22;18701;45.588;5.288;2022-07-04T15:55:10;27.60;97.70
32201;DHT22;18701;45.588;5.288;2022-07-04T15:57:35;27.50;98.00
32201;DHT22;18701;45.588;5.288;2022-07-04T16:00:03;27.40;97.90
32201;DHT22;18701;45.588;5.288;2022-07-04T16:02:29;27.40;98.30
32201;DHT22;18701;45.588;5.288;2022-07-04T16:04:55;27.20;97.80
32201;DHT22;18701;45.588;5.288;2022-07-04T16:07:20;27.20;98.00
32201;DHT22;18701;45.588;5.288;2022-07-04T16:09:46;27.10;97.90
32201;DHT22;18701;45.588;5.288;2022-07-04T16:12:12;27.00;97.50
32201;DHT22;18701;45.588;5.288;2022-07-04T16:14:37;27.00;98.00